ASL664 LYBE-LYPG
Flight info
| Callsign | ASL664 |
|---|---|
| Flight time | 0h 35m |
| Altitude | 24000 |
| Route | VAL DCT MOJ |
| Aircraft | A319/M-SDE3FGHIRWY/LB1 |
Departure
| Time | 2026-05-06 18:19 |
|---|---|
| Airport | Belgrade Nikola Tesla Airport (LYBE) |
Arrival
| Time | 2026-05-06 18:54 |
|---|---|
| Airport | Podgorica Airport / Podgorica Golubovci Airbase (LYPG) |
| Time | Latitude | Longitude | Altitude | Speed | Heading |
|---|---|---|---|---|---|
| 2026-05-06 18:06 | 44.82092 | 20.29252 | 307 ft | 0 kts | 229° |
| 2026-05-06 18:12 | 44.82097 | 20.29259 | 307 ft | 4 kts | 230° |
| 2026-05-06 18:12 | 44.82114 | 20.29289 | 307 ft | 4 kts | 235° |
| 2026-05-06 18:13 | 44.82128 | 20.29321 | 307 ft | 4 kts | 247° |
| 2026-05-06 18:13 | 44.82133 | 20.29356 | 307 ft | 4 kts | 291° |
| 2026-05-06 18:13 | 44.82131 | 20.29364 | 305 ft | 0 kts | 302° |
| 2026-05-06 18:15 | 44.82132 | 20.29361 | 305 ft | 2 kts | 302° |
| 2026-05-06 18:15 | 44.82150 | 20.29322 | 307 ft | 9 kts | 302° |
| 2026-05-06 18:15 | 44.82202 | 20.29208 | 307 ft | 18 kts | 302° |
| 2026-05-06 18:15 | 44.82274 | 20.29049 | 307 ft | 20 kts | 303° |
| 2026-05-06 18:16 | 44.82328 | 20.28929 | 307 ft | 14 kts | 300° |
| 2026-05-06 18:16 | 44.82382 | 20.28808 | 307 ft | 13 kts | 302° |
| 2026-05-06 18:16 | 44.82447 | 20.28785 | 307 ft | 8 kts | 22° |
| 2026-05-06 18:16 | 44.82498 | 20.28832 | 309 ft | 10 kts | 43° |
| 2026-05-06 18:17 | 44.82557 | 20.28899 | 309 ft | 12 kts | 39° |
| 2026-05-06 18:17 | 44.82605 | 20.29003 | 307 ft | 14 kts | 66° |
| 2026-05-06 18:17 | 44.82617 | 20.29148 | 306 ft | 16 kts | 96° |
| 2026-05-06 18:17 | 44.82593 | 20.29225 | 307 ft | 0 kts | 121° |
| 2026-05-06 18:18 | 44.82519 | 20.29391 | 307 ft | 48 kts | 122° |
| 2026-05-06 18:18 | 44.82237 | 20.30026 | 306 ft | 104 kts | 122° |
| 2026-05-06 18:18 | 44.81765 | 20.31089 | 307 ft | 151 kts | 122° |
| 2026-05-06 18:18 | 44.81171 | 20.32422 | 731 ft | 162 kts | 121° |
| 2026-05-06 18:19 | 44.80547 | 20.33761 | 1358 ft | 166 kts | 128° |
| 2026-05-06 18:19 | 44.79498 | 20.34593 | 1637 ft | 192 kts | 169° |
| 2026-05-06 18:19 | 44.78071 | 20.34760 | 1990 ft | 218 kts | 174° |
| 2026-05-06 18:19 | 44.76500 | 20.34955 | 2674 ft | 231 kts | 174° |
| 2026-05-06 18:20 | 44.75435 | 20.35097 | 3283 ft | 233 kts | 174° |
| 2026-05-06 18:20 | 44.73806 | 20.35319 | 4215 ft | 237 kts | 174° |
| 2026-05-06 18:20 | 44.72154 | 20.35548 | 5177 ft | 240 kts | 175° |
| 2026-05-06 18:20 | 44.70481 | 20.35782 | 6093 ft | 244 kts | 175° |
| 2026-05-06 18:21 | 44.68773 | 20.36026 | 6988 ft | 248 kts | 176° |
| 2026-05-06 18:21 | 44.67047 | 20.36276 | 7909 ft | 251 kts | 176° |
| 2026-05-06 18:21 | 44.65296 | 20.36536 | 8820 ft | 255 kts | 176° |
| 2026-05-06 18:21 | 44.63521 | 20.36798 | 9733 ft | 258 kts | 176° |
| 2026-05-06 18:22 | 44.61722 | 20.37064 | 10539 ft | 262 kts | 176° |
| 2026-05-06 18:22 | 44.59863 | 20.37221 | 11071 ft | 277 kts | 188° |
| 2026-05-06 18:22 | 44.58023 | 20.36331 | 11602 ft | 286 kts | 214° |
| 2026-05-06 18:22 | 44.56629 | 20.34373 | 12313 ft | 291 kts | 234° |
| 2026-05-06 18:23 | 44.55414 | 20.32030 | 13116 ft | 296 kts | 234° |
| 2026-05-06 18:23 | 44.54206 | 20.29666 | 13862 ft | 301 kts | 234° |
| 2026-05-06 18:23 | 44.52985 | 20.27275 | 14558 ft | 304 kts | 234° |
| 2026-05-06 18:23 | 44.51762 | 20.24886 | 15276 ft | 307 kts | 234° |
| 2026-05-06 18:24 | 44.50513 | 20.22448 | 16005 ft | 309 kts | 234° |
| 2026-05-06 18:24 | 44.49251 | 20.19991 | 16721 ft | 312 kts | 234° |
| 2026-05-06 18:24 | 44.47975 | 20.17516 | 17448 ft | 314 kts | 234° |
| 2026-05-06 18:24 | 44.46692 | 20.15028 | 18159 ft | 317 kts | 234° |
| 2026-05-06 18:25 | 44.45394 | 20.12514 | 18764 ft | 320 kts | 234° |
| 2026-05-06 18:25 | 44.44087 | 20.09983 | 19384 ft | 322 kts | 234° |
| 2026-05-06 18:25 | 44.42768 | 20.07434 | 20000 ft | 324 kts | 234° |
| 2026-05-06 18:25 | 44.41440 | 20.04872 | 20612 ft | 326 kts | 235° |
| 2026-05-06 18:26 | 44.40104 | 20.02296 | 21219 ft | 328 kts | 235° |
| 2026-05-06 18:26 | 44.38760 | 19.99707 | 21823 ft | 330 kts | 235° |
| 2026-05-06 18:26 | 44.37405 | 19.97100 | 22418 ft | 332 kts | 235° |
| 2026-05-06 18:26 | 44.36042 | 19.94482 | 23017 ft | 334 kts | 236° |
| 2026-05-06 18:27 | 44.34682 | 19.91887 | 23582 ft | 336 kts | 234° |
| 2026-05-06 18:27 | 44.33053 | 19.89527 | 23853 ft | 340 kts | 222° |
| 2026-05-06 18:27 | 44.31027 | 19.87738 | 23924 ft | 354 kts | 208° |
| 2026-05-06 18:27 | 44.28626 | 19.86620 | 23938 ft | 374 kts | 195° |
| 2026-05-06 18:28 | 44.26014 | 19.86076 | 23938 ft | 382 kts | 192° |
| 2026-05-06 18:28 | 44.23378 | 19.85543 | 23936 ft | 383 kts | 192° |
| 2026-05-06 18:28 | 44.20746 | 19.84966 | 23941 ft | 383 kts | 193° |
| 2026-05-06 18:28 | 44.18110 | 19.84365 | 23944 ft | 384 kts | 193° |
| 2026-05-06 18:29 | 44.15478 | 19.83761 | 23944 ft | 384 kts | 193° |
| 2026-05-06 18:29 | 44.12870 | 19.83166 | 23947 ft | 385 kts | 193° |
| 2026-05-06 18:29 | 44.10228 | 19.82568 | 23948 ft | 385 kts | 193° |
| 2026-05-06 18:29 | 44.07584 | 19.81976 | 23954 ft | 385 kts | 193° |
| 2026-05-06 18:30 | 44.04940 | 19.81390 | 23952 ft | 385 kts | 192° |
| 2026-05-06 18:30 | 44.02291 | 19.80809 | 23951 ft | 385 kts | 192° |
| 2026-05-06 18:30 | 43.99642 | 19.80233 | 23948 ft | 385 kts | 192° |
| 2026-05-06 18:30 | 43.96992 | 19.79658 | 23950 ft | 386 kts | 192° |
| 2026-05-06 18:31 | 43.94345 | 19.79081 | 23949 ft | 385 kts | 192° |
| 2026-05-06 18:31 | 43.91692 | 19.78500 | 23949 ft | 386 kts | 192° |
| 2026-05-06 18:31 | 43.89044 | 19.77920 | 23950 ft | 386 kts | 192° |
| 2026-05-06 18:31 | 43.86387 | 19.77340 | 23952 ft | 386 kts | 192° |
| 2026-05-06 18:32 | 43.83734 | 19.76761 | 23953 ft | 386 kts | 192° |
| 2026-05-06 18:32 | 43.81078 | 19.76180 | 23956 ft | 387 kts | 192° |
| 2026-05-06 18:32 | 43.78419 | 19.75599 | 23957 ft | 387 kts | 192° |
| 2026-05-06 18:32 | 43.75763 | 19.75019 | 23959 ft | 387 kts | 192° |
| 2026-05-06 18:33 | 43.73099 | 19.74438 | 23963 ft | 387 kts | 192° |
| 2026-05-06 18:33 | 43.70470 | 19.73866 | 23964 ft | 387 kts | 192° |
| 2026-05-06 18:33 | 43.67810 | 19.73289 | 23972 ft | 387 kts | 192° |
| 2026-05-06 18:33 | 43.65151 | 19.72713 | 23972 ft | 388 kts | 192° |
| 2026-05-06 18:34 | 43.62483 | 19.72133 | 23975 ft | 388 kts | 192° |
| 2026-05-06 18:34 | 43.59820 | 19.71555 | 23980 ft | 388 kts | 192° |
| 2026-05-06 18:34 | 43.57150 | 19.70978 | 23983 ft | 388 kts | 192° |
| 2026-05-06 18:34 | 43.54482 | 19.70405 | 23984 ft | 388 kts | 192° |
| 2026-05-06 18:35 | 43.51812 | 19.69833 | 23983 ft | 388 kts | 192° |
| 2026-05-06 18:35 | 43.49146 | 19.69261 | 23990 ft | 389 kts | 192° |
| 2026-05-06 18:35 | 43.46472 | 19.68684 | 23992 ft | 389 kts | 192° |
| 2026-05-06 18:35 | 43.43791 | 19.68105 | 23995 ft | 389 kts | 192° |
| 2026-05-06 18:36 | 43.41116 | 19.67525 | 24000 ft | 389 kts | 192° |
| 2026-05-06 18:36 | 43.38442 | 19.66944 | 24000 ft | 389 kts | 192° |
| 2026-05-06 18:36 | 43.35766 | 19.66363 | 24005 ft | 390 kts | 192° |
| 2026-05-06 18:36 | 43.33043 | 19.65776 | 23798 ft | 401 kts | 192° |
| 2026-05-06 18:37 | 43.30263 | 19.65180 | 23067 ft | 405 kts | 192° |
| 2026-05-06 18:37 | 43.27493 | 19.64586 | 22555 ft | 401 kts | 192° |
| 2026-05-06 18:37 | 43.24779 | 19.64008 | 22098 ft | 396 kts | 191° |
| 2026-05-06 18:37 | 43.22038 | 19.63427 | 21634 ft | 392 kts | 191° |
| 2026-05-06 18:38 | 43.19389 | 19.62864 | 21166 ft | 388 kts | 191° |
| 2026-05-06 18:38 | 43.16734 | 19.62295 | 20697 ft | 384 kts | 191° |
| 2026-05-06 18:38 | 43.14101 | 19.61732 | 20215 ft | 381 kts | 191° |
| 2026-05-06 18:38 | 43.11498 | 19.61175 | 19737 ft | 377 kts | 191° |
| 2026-05-06 18:39 | 43.08917 | 19.60624 | 19259 ft | 373 kts | 191° |
| 2026-05-06 18:39 | 43.06362 | 19.60082 | 18785 ft | 369 kts | 191° |
| 2026-05-06 18:39 | 43.03839 | 19.59549 | 18308 ft | 365 kts | 191° |
| 2026-05-06 18:40 | 42.98886 | 19.58501 | 17335 ft | 354 kts | 191° |
| 2026-05-06 18:40 | 42.96475 | 19.57988 | 16879 ft | 349 kts | 191° |
| 2026-05-06 18:40 | 42.94123 | 19.57299 | 16417 ft | 342 kts | 200° |
| 2026-05-06 18:40 | 42.91935 | 19.56105 | 15902 ft | 337 kts | 205° |
| 2026-05-06 18:41 | 42.89815 | 19.54868 | 15433 ft | 334 kts | 205° |
| 2026-05-06 18:41 | 42.87692 | 19.53633 | 14984 ft | 330 kts | 205° |
| 2026-05-06 18:41 | 42.85585 | 19.52412 | 14538 ft | 327 kts | 205° |
| 2026-05-06 18:41 | 42.83500 | 19.51205 | 14092 ft | 324 kts | 205° |
| 2026-05-06 18:42 | 42.81407 | 19.49994 | 13617 ft | 321 kts | 205° |
| 2026-05-06 18:42 | 42.79385 | 19.48825 | 13171 ft | 318 kts | 205° |
| 2026-05-06 18:42 | 42.77362 | 19.47656 | 12733 ft | 314 kts | 205° |
| 2026-05-06 18:42 | 42.75355 | 19.46498 | 12313 ft | 312 kts | 205° |
| 2026-05-06 18:43 | 42.73365 | 19.45353 | 11887 ft | 309 kts | 205° |
| 2026-05-06 18:43 | 42.71396 | 19.44220 | 11540 ft | 304 kts | 205° |
| 2026-05-06 18:43 | 42.69485 | 19.43123 | 11420 ft | 292 kts | 205° |
| 2026-05-06 18:43 | 42.67643 | 19.42067 | 11296 ft | 282 kts | 204° |
| 2026-05-06 18:44 | 42.65863 | 19.41047 | 11171 ft | 274 kts | 205° |
| 2026-05-06 18:44 | 42.64128 | 19.40052 | 11044 ft | 266 kts | 205° |
| 2026-05-06 18:44 | 42.62442 | 19.39085 | 10884 ft | 261 kts | 205° |
| 2026-05-06 18:44 | 42.60770 | 19.38125 | 10731 ft | 262 kts | 205° |
| 2026-05-06 18:45 | 42.59082 | 19.37154 | 10407 ft | 262 kts | 204° |
| 2026-05-06 18:45 | 42.57411 | 19.36197 | 10215 ft | 258 kts | 205° |
| 2026-05-06 18:45 | 42.55801 | 19.35277 | 10080 ft | 252 kts | 205° |
| 2026-05-06 18:45 | 42.54193 | 19.34359 | 9844 ft | 250 kts | 204° |
| 2026-05-06 18:46 | 42.52550 | 19.33632 | 9537 ft | 250 kts | 192° |
| 2026-05-06 18:46 | 42.50813 | 19.33421 | 9212 ft | 251 kts | 186° |
| 2026-05-06 18:46 | 42.49080 | 19.33248 | 8944 ft | 249 kts | 186° |
| 2026-05-06 18:46 | 42.47356 | 19.33071 | 8671 ft | 247 kts | 186° |
| 2026-05-06 18:47 | 42.45644 | 19.32891 | 8380 ft | 246 kts | 186° |
| 2026-05-06 18:47 | 42.43937 | 19.32712 | 8040 ft | 245 kts | 186° |
| 2026-05-06 18:47 | 42.42241 | 19.32537 | 7679 ft | 244 kts | 186° |
| 2026-05-06 18:47 | 42.40552 | 19.32363 | 7319 ft | 243 kts | 186° |
| 2026-05-06 18:48 | 42.38875 | 19.32188 | 6905 ft | 240 kts | 186° |
| 2026-05-06 18:48 | 42.37210 | 19.32016 | 6363 ft | 239 kts | 185° |
| 2026-05-06 18:48 | 42.35542 | 19.31846 | 5716 ft | 242 kts | 185° |
| 2026-05-06 18:48 | 42.33883 | 19.31679 | 5348 ft | 233 kts | 185° |
| 2026-05-06 18:49 | 42.32301 | 19.31517 | 4928 ft | 226 kts | 184° |
| 2026-05-06 18:49 | 42.30758 | 19.31356 | 4495 ft | 225 kts | 184° |
| 2026-05-06 18:49 | 42.29194 | 19.31192 | 4080 ft | 226 kts | 184° |
| 2026-05-06 18:49 | 42.27623 | 19.31030 | 3654 ft | 228 kts | 184° |
| 2026-05-06 18:50 | 42.26038 | 19.30866 | 3319 ft | 225 kts | 184° |
| 2026-05-06 18:50 | 42.24629 | 19.30200 | 3240 ft | 211 kts | 220° |
| 2026-05-06 18:50 | 42.23950 | 19.28534 | 3021 ft | 207 kts | 263° |
| 2026-05-06 18:50 | 42.23993 | 19.26587 | 2665 ft | 209 kts | 276° |
| 2026-05-06 18:51 | 42.24632 | 19.24862 | 2297 ft | 210 kts | 319° |
| 2026-05-06 18:51 | 42.25946 | 19.24174 | 2022 ft | 200 kts | 359° |
| 2026-05-06 18:51 | 42.27276 | 19.24409 | 1708 ft | 188 kts | 8° |
| 2026-05-06 18:51 | 42.28522 | 19.24554 | 1442 ft | 168 kts | 4° |
| 2026-05-06 18:52 | 42.29620 | 19.24531 | 1189 ft | 149 kts | 1° |
| 2026-05-06 18:52 | 42.30614 | 19.24628 | 949 ft | 139 kts | 6° |
| 2026-05-06 18:52 | 42.31562 | 19.24743 | 831 ft | 136 kts | 7° |
| 2026-05-06 18:52 | 42.32490 | 19.24823 | 585 ft | 134 kts | 5° |
| 2026-05-06 18:53 | 42.33430 | 19.24930 | 458 ft | 135 kts | 7° |
| 2026-05-06 18:53 | 42.34351 | 19.25020 | 276 ft | 134 kts | 6° |
| 2026-05-06 18:53 | 42.35270 | 19.25114 | 134 ft | 125 kts | 6° |
| 2026-05-06 18:53 | 42.36011 | 19.25195 | 132 ft | 84 kts | 4° |
| 2026-05-06 18:54 | 42.36431 | 19.25235 | 131 ft | 45 kts | 3° |
| 2026-05-06 18:54 | 42.36598 | 19.25245 | 131 ft | 12 kts | 1° |
| 2026-05-06 18:54 | 42.36618 | 19.25183 | 131 ft | 9 kts | 271° |
| 2026-05-06 18:54 | 42.36624 | 19.25088 | 131 ft | 11 kts | 274° |
| 2026-05-06 18:55 | 42.30514 | 19.24617 | 973 ft | 141 kts | 7° |
| 2026-05-06 18:55 | 42.34828 | 19.25070 | 200 ft | 134 kts | 7° |
| 2026-05-06 18:55 | 42.35689 | 19.25165 | 132 ft | 108 kts | 5° |
| 2026-05-06 18:55 | 42.34884 | 19.25076 | 174 ft | 131 kts | 6° |
| 2026-05-06 18:56 | 42.35634 | 19.25158 | 132 ft | 111 kts | 5° |
| 2026-05-06 18:56 | 42.35093 | 19.25097 | 149 ft | 132 kts | 6° |
| 2026-05-06 18:56 | 42.33956 | 19.24980 | 371 ft | 135 kts | 5° |
| 2026-05-06 18:57 | 42.34886 | 19.25076 | 174 ft | 134 kts | 6° |
| 2026-05-06 18:57 | 42.35734 | 19.25170 | 132 ft | 107 kts | 5° |
| 2026-05-06 18:57 | 42.36644 | 19.24855 | 131 ft | 20 kts | 284° |
| 2026-05-06 18:57 | 42.36697 | 19.24754 | 131 ft | 13 kts | 324° |
| 2026-05-06 18:58 | 42.36771 | 19.24720 | 131 ft | 11 kts | 352° |
| 2026-05-06 18:58 | 42.36798 | 19.24765 | 131 ft | 0 kts | 313° |